sensor_id;sensor_type;location;lat;lon;timestamp;temperature;humidity
72865;DHT22;61000;48.120;11.548;2022-09-09T00:00:48;16.00;96.60
72865;DHT22;61000;48.120;11.548;2022-09-09T00:03:21;16.00;96.60
72865;DHT22;61000;48.120;11.548;2022-09-09T00:05:55;16.00;96.70
72865;DHT22;61000;48.120;11.548;2022-09-09T00:08:37;15.90;96.70
72865;DHT22;61000;48.120;11.548;2022-09-09T00:11:12;16.00;97.00
72865;DHT22;61000;48.120;11.548;2022-09-09T00:13:46;16.00;97.20
72865;DHT22;61000;48.120;11.548;2022-09-09T00:16:17;16.00;97.10
72865;DHT22;61000;48.120;11.548;2022-09-09T00:18:53;16.00;97.10
72865;DHT22;61000;48.120;11.548;2022-09-09T00:21:23;16.10;97.10
72865;DHT22;61000;48.120;11.548;2022-09-09T00:23:53;16.00;97.40
72865;DHT22;61000;48.120;11.548;2022-09-09T00:26:25;16.00;97.20
72865;DHT22;61000;48.120;11.548;2022-09-09T00:29:00;16.00;97.50
72865;DHT22;61000;48.120;11.548;2022-09-09T00:31:30;16.00;97.60
72865;DHT22;61000;48.120;11.548;2022-09-09T00:34:05;16.00;97.50
72865;DHT22;61000;48.120;11.548;2022-09-09T00:36:36;16.00;97.40
72865;DHT22;61000;48.120;11.548;2022-09-09T00:39:04;16.00;97.50
72865;DHT22;61000;48.120;11.548;2022-09-09T00:41:44;16.00;97.50
72865;DHT22;61000;48.120;11.548;2022-09-09T00:44:25;16.00;97.40
72865;DHT22;61000;48.120;11.548;2022-09-09T00:47:09;16.00;97.40
72865;DHT22;61000;48.120;11.548;2022-09-09T00:49:48;16.00;97.50
72865;DHT22;61000;48.120;11.548;2022-09-09T00:52:31;16.10;97.50
72865;DHT22;61000;48.120;11.548;2022-09-09T00:55:07;16.10;97.50
72865;DHT22;61000;48.120;11.548;2022-09-09T00:57:36;16.10;97.60
72865;DHT22;61000;48.120;11.548;2022-09-09T01:00:21;16.00;97.80
72865;DHT22;61000;48.120;11.548;2022-09-09T01:03:03;16.00;98.00
72865;DHT22;61000;48.120;11.548;2022-09-09T01:05:40;16.00;98.50
72865;DHT22;61000;48.120;11.548;2022-09-09T01:08:28;15.90;98.30
72865;DHT22;61000;48.120;11.548;2022-09-09T01:11:01;15.90;98.20
72865;DHT22;61000;48.120;11.548;2022-09-09T01:13:30;15.90;98.10
72865;DHT22;61000;48.120;11.548;2022-09-09T01:16:04;15.80;98.20
72865;DHT22;61000;48.120;11.548;2022-09-09T01:18:37;15.80;98.50
72865;DHT22;61000;48.120;11.548;2022-09-09T01:21:13;15.90;98.60
72865;DHT22;61000;48.120;11.548;2022-09-09T01:23:58;15.90;98.40
72865;DHT22;61000;48.120;11.548;2022-09-09T01:26:37;15.90;98.50
72865;DHT22;61000;48.120;11.548;2022-09-09T01:29:10;15.80;98.50
72865;DHT22;61000;48.120;11.548;2022-09-09T01:31:41;15.90;98.80
72865;DHT22;61000;48.120;11.548;2022-09-09T01:34:11;15.90;98.70
72865;DHT22;61000;48.120;11.548;2022-09-09T01:36:42;15.90;98.60
72865;DHT22;61000;48.120;11.548;2022-09-09T01:39:10;15.90;98.60
72865;DHT22;61000;48.120;11.548;2022-09-09T01:41:39;15.90;98.60
72865;DHT22;61000;48.120;11.548;2022-09-09T01:44:12;15.90;98.70
72865;DHT22;61000;48.120;11.548;2022-09-09T01:46:44;15.90;99.00
72865;DHT22;61000;48.120;11.548;2022-09-09T01:49:16;15.90;98.80
72865;DHT22;61000;48.120;11.548;2022-09-09T01:51:43;15.90;98.90
72865;DHT22;61000;48.120;11.548;2022-09-09T01:54:13;15.80;98.80
72865;DHT22;61000;48.120;11.548;2022-09-09T01:56:49;15.80;99.00
72865;DHT22;61000;48.120;11.548;2022-09-09T01:59:30;15.80;99.30
72865;DHT22;61000;48.120;11.548;2022-09-09T02:02:09;15.70;99.40
72865;DHT22;61000;48.120;11.548;2022-09-09T02:04:41;15.70;99.40
72865;DHT22;61000;48.120;11.548;2022-09-09T02:07:21;15.70;99.30
72865;DHT22;61000;48.120;11.548;2022-09-09T02:09:57;15.70;99.50
72865;DHT22;61000;48.120;11.548;2022-09-09T02:12:28;15.70;99.50
72865;DHT22;61000;48.120;11.548;2022-09-09T02:15:03;15.80;99.60
72865;DHT22;61000;48.120;11.548;2022-09-09T02:17:39;15.80;99.50
72865;DHT22;61000;48.120;11.548;2022-09-09T02:20:14;15.80;99.40
72865;DHT22;61000;48.120;11.548;2022-09-09T02:22:49;15.80;99.50
72865;DHT22;61000;48.120;11.548;2022-09-09T02:25:21;15.70;99.60
72865;DHT22;61000;48.120;11.548;2022-09-09T02:27:51;15.70;99.70
72865;DHT22;61000;48.120;11.548;2022-09-09T02:30:19;15.70;99.70
72865;DHT22;61000;48.120;11.548;2022-09-09T02:32:53;15.70;99.70
72865;DHT22;61000;48.120;11.548;2022-09-09T02:35:24;15.60;99.70
72865;DHT22;61000;48.120;11.548;2022-09-09T02:37:54;15.70;99.80
72865;DHT22;61000;48.120;11.548;2022-09-09T02:40:22;15.60;99.90
72865;DHT22;61000;48.120;11.548;2022-09-09T02:42:58;15.60;99.90
72865;DHT22;61000;48.120;11.548;2022-09-09T02:45:29;15.60;99.90
72865;DHT22;61000;48.120;11.548;2022-09-09T02:48:03;15.60;99.90
72865;DHT22;61000;48.120;11.548;2022-09-09T02:50:35;15.60;99.90
72865;DHT22;61000;48.120;11.548;2022-09-09T02:53:09;15.60;99.90
72865;DHT22;61000;48.120;11.548;2022-09-09T02:55:41;15.60;99.90
72865;DHT22;61000;48.120;11.548;2022-09-09T02:58:14;15.60;99.90
72865;DHT22;61000;48.120;11.548;2022-09-09T03:00:45;15.60;99.90
72865;DHT22;61000;48.120;11.548;2022-09-09T03:03:13;15.60;99.90
72865;DHT22;61000;48.120;11.548;2022-09-09T03:05:42;15.60;99.90
72865;DHT22;61000;48.120;11.548;2022-09-09T03:08:09;15.50;99.90
72865;DHT22;61000;48.120;11.548;2022-09-09T03:10:36;15.60;99.90
72865;DHT22;61000;48.120;11.548;2022-09-09T03:13:04;15.50;99.90
72865;DHT22;61000;48.120;11.548;2022-09-09T03:15:35;15.50;99.90
72865;DHT22;61000;48.120;11.548;2022-09-09T03:18:04;15.50;99.90
72865;DHT22;61000;48.120;11.548;2022-09-09T03:20:32;15.50;99.90
72865;DHT22;61000;48.120;11.548;2022-09-09T03:23:00;15.50;99.90
72865;DHT22;61000;48.120;11.548;2022-09-09T03:25:28;15.50;99.90
72865;DHT22;61000;48.120;11.548;2022-09-09T03:27:56;15.50;99.90
72865;DHT22;61000;48.120;11.548;2022-09-09T03:30:25;15.50;99.90
72865;DHT22;61000;48.120;11.548;2022-09-09T03:32:55;15.50;99.90
72865;DHT22;61000;48.120;11.548;2022-09-09T03:35:26;15.40;99.90
72865;DHT22;61000;48.120;11.548;2022-09-09T03:37:54;15.40;99.90
72865;DHT22;61000;48.120;11.548;2022-09-09T03:40:22;15.40;99.90
72865;DHT22;61000;48.120;11.548;2022-09-09T03:42:49;15.30;99.90
72865;DHT22;61000;48.120;11.548;2022-09-09T03:45:16;15.30;99.90
72865;DHT22;61000;48.120;11.548;2022-09-09T03:47:43;15.30;99.90
72865;DHT22;61000;48.120;11.548;2022-09-09T03:50:13;15.30;99.90
72865;DHT22;61000;48.120;11.548;2022-09-09T03:52:44;15.20;99.90
72865;DHT22;61000;48.120;11.548;2022-09-09T03:55:17;15.20;99.90
72865;DHT22;61000;48.120;11.548;2022-09-09T03:57:45;15.20;99.90
72865;DHT22;61000;48.120;11.548;2022-09-09T04:00:13;15.20;99.90
72865;DHT22;61000;48.120;11.548;2022-09-09T04:02:43;15.30;99.90
72865;DHT22;61000;48.120;11.548;2022-09-09T04:05:15;15.20;99.90
72865;DHT22;61000;48.120;11.548;2022-09-09T04:07:44;15.20;99.90
72865;DHT22;61000;48.120;11.548;2022-09-09T04:10:11;15.20;99.90
72865;DHT22;61000;48.120;11.548;2022-09-09T04:12:39;15.20;99.90
72865;DHT22;61000;48.120;11.548;2022-09-09T04:15:07;15.20;99.90
72865;DHT22;61000;48.120;11.548;2022-09-09T04:17:35;15.30;99.90
72865;DHT22;61000;48.120;11.548;2022-09-09T04:20:03;15.30;99.90
72865;DHT22;61000;48.120;11.548;2022-09-09T04:22:32;15.30;99.90
72865;DHT22;61000;48.120;11.548;2022-09-09T04:25:00;15.30;99.90
72865;DHT22;61000;48.120;11.548;2022-09-09T04:27:28;15.30;99.90
72865;DHT22;61000;48.120;11.548;2022-09-09T04:29:55;15.30;99.90
72865;DHT22;61000;48.120;11.548;2022-09-09T04:32:24;15.30;99.90
72865;DHT22;61000;48.120;11.548;2022-09-09T04:34:52;15.30;99.90
72865;DHT22;61000;48.120;11.548;2022-09-09T04:37:20;15.30;99.90
72865;DHT22;61000;48.120;11.548;2022-09-09T04:39:48;15.20;99.90
72865;DHT22;61000;48.120;11.548;2022-09-09T04:42:15;15.20;99.90
72865;DHT22;61000;48.120;11.548;2022-09-09T04:44:45;15.20;99.90
72865;DHT22;61000;48.120;11.548;2022-09-09T04:47:13;15.20;99.90
72865;DHT22;61000;48.120;11.548;2022-09-09T04:49:40;15.20;99.90
72865;DHT22;61000;48.120;11.548;2022-09-09T04:52:07;15.10;99.90
72865;DHT22;61000;48.120;11.548;2022-09-09T04:54:35;15.10;99.90
72865;DHT22;61000;48.120;11.548;2022-09-09T04:57:03;15.10;99.90
72865;DHT22;61000;48.120;11.548;2022-09-09T04:59:30;15.10;99.90
72865;DHT22;61000;48.120;11.548;2022-09-09T05:02:00;15.10;99.90
72865;DHT22;61000;48.120;11.548;2022-09-09T05:04:28;15.10;99.90
72865;DHT22;61000;48.120;11.548;2022-09-09T05:06:55;15.10;99.90
72865;DHT22;61000;48.120;11.548;2022-09-09T05:09:23;15.10;99.90
72865;DHT22;61000;48.120;11.548;2022-09-09T05:11:51;15.10;99.90
72865;DHT22;61000;48.120;11.548;2022-09-09T05:14:27;15.10;99.90
72865;DHT22;61000;48.120;11.548;2022-09-09T05:16:55;15.10;99.90
72865;DHT22;61000;48.120;11.548;2022-09-09T05:19:23;15.10;99.90
72865;DHT22;61000;48.120;11.548;2022-09-09T05:21:52;15.00;99.90
72865;DHT22;61000;48.120;11.548;2022-09-09T05:24:24;15.00;99.90
72865;DHT22;61000;48.120;11.548;2022-09-09T05:26:54;15.00;99.90
72865;DHT22;61000;48.120;11.548;2022-09-09T05:29:23;15.00;99.90
72865;DHT22;61000;48.120;11.548;2022-09-09T05:31:51;15.00;99.90
72865;DHT22;61000;48.120;11.548;2022-09-09T05:34:20;14.90;99.90
72865;DHT22;61000;48.120;11.548;2022-09-09T05:36:49;14.90;99.90
72865;DHT22;61000;48.120;11.548;2022-09-09T05:39:16;14.90;99.90
72865;DHT22;61000;48.120;11.548;2022-09-09T05:41:43;14.90;99.90
72865;DHT22;61000;48.120;11.548;2022-09-09T05:44:10;14.90;99.90
72865;DHT22;61000;48.120;11.548;2022-09-09T05:46:38;14.90;99.90
72865;DHT22;61000;48.120;11.548;2022-09-09T05:49:07;14.90;99.90
72865;DHT22;61000;48.120;11.548;2022-09-09T05:51:35;15.00;99.90
72865;DHT22;61000;48.120;11.548;2022-09-09T05:54:07;15.00;99.90
72865;DHT22;61000;48.120;11.548;2022-09-09T05:56:38;15.00;99.90
72865;DHT22;61000;48.120;11.548;2022-09-09T05:59:06;15.10;99.90
72865;DHT22;61000;48.120;11.548;2022-09-09T06:01:35;15.10;99.90
72865;DHT22;61000;48.120;11.548;2022-09-09T06:04:08;15.20;99.90
72865;DHT22;61000;48.120;11.548;2022-09-09T06:06:37;15.20;99.90
72865;DHT22;61000;48.120;11.548;2022-09-09T06:09:11;15.20;99.90
72865;DHT22;61000;48.120;11.548;2022-09-09T06:11:41;15.30;99.90
72865;DHT22;61000;48.120;11.548;2022-09-09T06:14:12;15.30;99.90
72865;DHT22;61000;48.120;11.548;2022-09-09T06:16:39;15.40;99.90
72865;DHT22;61000;48.120;11.548;2022-09-09T06:19:15;15.40;99.90
72865;DHT22;61000;48.120;11.548;2022-09-09T06:21:42;15.50;99.90
72865;DHT22;61000;48.120;11.548;2022-09-09T06:24:11;15.60;99.90
72865;DHT22;61000;48.120;11.548;2022-09-09T06:26:39;15.60;99.90
72865;DHT22;61000;48.120;11.548;2022-09-09T06:29:08;15.60;99.90
72865;DHT22;61000;48.120;11.548;2022-09-09T06:31:36;15.70;99.90
72865;DHT22;61000;48.120;11.548;2022-09-09T06:34:09;15.70;99.90
72865;DHT22;61000;48.120;11.548;2022-09-09T06:36:41;15.70;99.90
72865;DHT22;61000;48.120;11.548;2022-09-09T06:39:08;15.70;99.90
72865;DHT22;61000;48.120;11.548;2022-09-09T06:41:37;15.80;99.90
72865;DHT22;61000;48.120;11.548;2022-09-09T06:44:08;15.80;99.90
72865;DHT22;61000;48.120;11.548;2022-09-09T06:46:40;15.80;99.90
72865;DHT22;61000;48.120;11.548;2022-09-09T06:49:10;15.90;99.90
72865;DHT22;61000;48.120;11.548;2022-09-09T06:51:37;15.90;99.80
72865;DHT22;61000;48.120;11.548;2022-09-09T06:54:10;16.00;99.80
72865;DHT22;61000;48.120;11.548;2022-09-09T06:56:41;16.00;99.90
72865;DHT22;61000;48.120;11.548;2022-09-09T06:59:13;16.10;99.70
72865;DHT22;61000;48.120;11.548;2022-09-09T07:01:41;16.20;99.60
72865;DHT22;61000;48.120;11.548;2022-09-09T07:04:11;16.20;99.60
72865;DHT22;61000;48.120;11.548;2022-09-09T07:06:43;16.30;99.30
72865;DHT22;61000;48.120;11.548;2022-09-09T07:09:15;16.30;99.30
72865;DHT22;61000;48.120;11.548;2022-09-09T07:11:49;16.40;99.20
72865;DHT22;61000;48.120;11.548;2022-09-09T07:14:19;16.40;99.20
72865;DHT22;61000;48.120;11.548;2022-09-09T07:16:52;16.40;99.30
72865;DHT22;61000;48.120;11.548;2022-09-09T07:19:19;16.30;99.10
72865;DHT22;61000;48.120;11.548;2022-09-09T07:21:50;16.30;99.10
72865;DHT22;61000;48.120;11.548;2022-09-09T07:24:20;16.30;99.10
72865;DHT22;61000;48.120;11.548;2022-09-09T07:26:48;16.30;99.10
72865;DHT22;61000;48.120;11.548;2022-09-09T07:29:15;16.30;99.20
72865;DHT22;61000;48.120;11.548;2022-09-09T07:31:43;16.30;99.40
72865;DHT22;61000;48.120;11.548;2022-09-09T07:34:13;16.30;99.50
72865;DHT22;61000;48.120;11.548;2022-09-09T07:36:40;16.40;99.50
72865;DHT22;61000;48.120;11.548;2022-09-09T07:39:11;16.50;99.50
72865;DHT22;61000;48.120;11.548;2022-09-09T07:41:44;16.60;99.40
72865;DHT22;61000;48.120;11.548;2022-09-09T07:44:14;16.70;99.00
72865;DHT22;61000;48.120;11.548;2022-09-09T07:46:44;16.80;98.80
72865;DHT22;61000;48.120;11.548;2022-09-09T07:49:15;16.90;98.50
72865;DHT22;61000;48.120;11.548;2022-09-09T07:51:46;17.00;98.50
72865;DHT22;61000;48.120;11.548;2022-09-09T07:54:15;17.10;98.30
72865;DHT22;61000;48.120;11.548;2022-09-09T07:56:45;17.10;98.20
72865;DHT22;61000;48.120;11.548;2022-09-09T07:59:13;17.20;98.30
72865;DHT22;61000;48.120;11.548;2022-09-09T08:01:43;17.20;98.10
72865;DHT22;61000;48.120;11.548;2022-09-09T08:04:15;17.30;98.10
72865;DHT22;61000;48.120;11.548;2022-09-09T08:06:45;17.40;98.10
72865;DHT22;61000;48.120;11.548;2022-09-09T08:09:14;17.40;97.90
72865;DHT22;61000;48.120;11.548;2022-09-09T08:11:42;17.40;97.60
72865;DHT22;61000;48.120;11.548;2022-09-09T08:14:12;17.50;97.40
72865;DHT22;61000;48.120;11.548;2022-09-09T08:16:42;17.50;97.30
72865;DHT22;61000;48.120;11.548;2022-09-09T08:19:10;17.60;97.40
72865;DHT22;61000;48.120;11.548;2022-09-09T08:21:39;17.60;97.40
72865;DHT22;61000;48.120;11.548;2022-09-09T08:24:07;17.70;97.60
72865;DHT22;61000;48.120;11.548;2022-09-09T08:26:39;17.80;97.30
72865;DHT22;61000;48.120;11.548;2022-09-09T08:29:09;17.80;97.00
72865;DHT22;61000;48.120;11.548;2022-09-09T08:31:39;17.80;97.20
72865;DHT22;61000;48.120;11.548;2022-09-09T08:34:08;17.90;97.00
72865;DHT22;61000;48.120;11.548;2022-09-09T08:36:39;18.00;96.70
72865;DHT22;61000;48.120;11.548;2022-09-09T08:39:09;18.10;96.80
72865;DHT22;61000;48.120;11.548;2022-09-09T08:42:00;18.10;96.50
72865;DHT22;61000;48.120;11.548;2022-09-09T08:44:48;18.10;95.90
72865;DHT22;61000;48.120;11.548;2022-09-09T08:47:26;18.00;96.10
72865;DHT22;61000;48.120;11.548;2022-09-09T08:50:05;18.00;96.30
72865;DHT22;61000;48.120;11.548;2022-09-09T08:52:38;18.00;96.60
72865;DHT22;61000;48.120;11.548;2022-09-09T08:55:19;17.90;96.90
72865;DHT22;61000;48.120;11.548;2022-09-09T08:57:49;17.80;96.50
72865;DHT22;61000;48.120;11.548;2022-09-09T09:00:17;17.80;97.10
72865;DHT22;61000;48.120;11.548;2022-09-09T09:02:52;17.70;97.20
72865;DHT22;61000;48.120;11.548;2022-09-09T09:05:26;17.80;97.50
72865;DHT22;61000;48.120;11.548;2022-09-09T09:08:03;17.80;97.70
72865;DHT22;61000;48.120;11.548;2022-09-09T09:10:43;17.80;97.80
72865;DHT22;61000;48.120;11.548;2022-09-09T09:13:18;17.80;98.00
72865;DHT22;61000;48.120;11.548;2022-09-09T09:15:50;17.80;97.90
72865;DHT22;61000;48.120;11.548;2022-09-09T09:18:20;17.80;98.00
72865;DHT22;61000;48.120;11.548;2022-09-09T09:20:58;17.80;97.90
72865;DHT22;61000;48.120;11.548;2022-09-09T09:23:38;17.90;97.70
72865;DHT22;61000;48.120;11.548;2022-09-09T09:26:09;17.90;97.60
72865;DHT22;61000;48.120;11.548;2022-09-09T09:28:39;18.00;97.20
72865;DHT22;61000;48.120;11.548;2022-09-09T09:31:12;18.10;97.30
72865;DHT22;61000;48.120;11.548;2022-09-09T09:33:47;18.30;97.30
72865;DHT22;61000;48.120;11.548;2022-09-09T09:36:16;18.40;97.00
72865;DHT22;61000;48.120;11.548;2022-09-09T09:38:53;18.50;97.10
72865;DHT22;61000;48.120;11.548;2022-09-09T09:41:30;18.50;97.10
72865;DHT22;61000;48.120;11.548;2022-09-09T09:43:58;18.60;96.80
72865;DHT22;61000;48.120;11.548;2022-09-09T09:46:27;18.60;96.70
72865;DHT22;61000;48.120;11.548;2022-09-09T09:49:05;18.60;95.90
72865;DHT22;61000;48.120;11.548;2022-09-09T09:51:36;18.60;96.20
72865;DHT22;61000;48.120;11.548;2022-09-09T09:54:09;18.60;96.50
72865;DHT22;61000;48.120;11.548;2022-09-09T09:56:45;18.60;96.50
72865;DHT22;61000;48.120;11.548;2022-09-09T09:59:32;18.60;96.30
72865;DHT22;61000;48.120;11.548;2022-09-09T10:02:18;18.60;96.10
72865;DHT22;61000;48.120;11.548;2022-09-09T10:05:00;18.50;95.90
72865;DHT22;61000;48.120;11.548;2022-09-09T10:07:28;18.40;95.80
72865;DHT22;61000;48.120;11.548;2022-09-09T10:09:57;18.40;95.80
72865;DHT22;61000;48.120;11.548;2022-09-09T10:12:34;18.40;96.00
72865;DHT22;61000;48.120;11.548;2022-09-09T10:15:16;18.20;96.20
72865;DHT22;61000;48.120;11.548;2022-09-09T10:17:56;18.10;96.40
72865;DHT22;61000;48.120;11.548;2022-09-09T10:20:35;18.10;96.60
72865;DHT22;61000;48.120;11.548;2022-09-09T10:23:18;18.10;96.60
72865;DHT22;61000;48.120;11.548;2022-09-09T10:26:01;17.90;96.40
72865;DHT22;61000;48.120;11.548;2022-09-09T10:28:47;17.90;96.60
72865;DHT22;61000;48.120;11.548;2022-09-09T10:31:23;17.90;96.90
72865;DHT22;61000;48.120;11.548;2022-09-09T10:33:57;18.00;97.10
72865;DHT22;61000;48.120;11.548;2022-09-09T10:36:28;18.00;97.00
72865;DHT22;61000;48.120;11.548;2022-09-09T10:38:59;18.10;97.60
72865;DHT22;61000;48.120;11.548;2022-09-09T10:41:42;18.10;97.20
72865;DHT22;61000;48.120;11.548;2022-09-09T10:44:29;18.20;97.60
72865;DHT22;61000;48.120;11.548;2022-09-09T10:47:17;18.20;97.40
72865;DHT22;61000;48.120;11.548;2022-09-09T10:50:08;18.20;96.80
72865;DHT22;61000;48.120;11.548;2022-09-09T10:52:48;18.20;96.90
72865;DHT22;61000;48.120;11.548;2022-09-09T10:55:19;18.20;96.70
72865;DHT22;61000;48.120;11.548;2022-09-09T10:57:48;18.30;96.30
72865;DHT22;61000;48.120;11.548;2022-09-09T11:00:20;18.30;95.90
72865;DHT22;61000;48.120;11.548;2022-09-09T11:02:51;18.40;95.20
72865;DHT22;61000;48.120;11.548;2022-09-09T11:05:20;18.40;95.30
72865;DHT22;61000;48.120;11.548;2022-09-09T11:07:52;18.50;95.20
72865;DHT22;61000;48.120;11.548;2022-09-09T11:10:25;18.50;95.10
72865;DHT22;61000;48.120;11.548;2022-09-09T11:13:01;18.70;95.00
72865;DHT22;61000;48.120;11.548;2022-09-09T11:15:33;18.70;94.40
72865;DHT22;61000;48.120;11.548;2022-09-09T11:18:04;18.80;94.50
72865;DHT22;61000;48.120;11.548;2022-09-09T11:20:32;18.80;94.20
72865;DHT22;61000;48.120;11.548;2022-09-09T11:23:04;18.90;93.80
72865;DHT22;61000;48.120;11.548;2022-09-09T11:25:34;19.00;93.70
72865;DHT22;61000;48.120;11.548;2022-09-09T11:28:21;19.00;93.90
72865;DHT22;61000;48.120;11.548;2022-09-09T11:31:02;19.10;93.30
72865;DHT22;61000;48.120;11.548;2022-09-09T11:36:54;19.30;92.90
72865;DHT22;61000;48.120;11.548;2022-09-09T11:39:48;19.40;92.80
72865;DHT22;61000;48.120;11.548;2022-09-09T11:42:20;19.60;92.70
72865;DHT22;61000;48.120;11.548;2022-09-09T11:44:47;19.80;92.30
72865;DHT22;61000;48.120;11.548;2022-09-09T11:47:21;19.70;91.40
72865;DHT22;61000;48.120;11.548;2022-09-09T11:49:50;19.70;91.30
72865;DHT22;61000;48.120;11.548;2022-09-09T11:52:22;19.50;90.60
72865;DHT22;61000;48.120;11.548;2022-09-09T11:54:54;19.50;90.80
72865;DHT22;61000;48.120;11.548;2022-09-09T11:57:25;19.50;90.50
72865;DHT22;61000;48.120;11.548;2022-09-09T11:59:54;19.30;90.30
72865;DHT22;61000;48.120;11.548;2022-09-09T12:02:23;19.30;90.50
72865;DHT22;61000;48.120;11.548;2022-09-09T12:04:56;19.30;90.60
72865;DHT22;61000;48.120;11.548;2022-09-09T12:07:30;19.30;90.70
72865;DHT22;61000;48.120;11.548;2022-09-09T12:10:03;19.50;90.80
72865;DHT22;61000;48.120;11.548;2022-09-09T12:12:32;19.50;90.70
72865;DHT22;61000;48.120;11.548;2022-09-09T12:15:21;19.60;90.30
72865;DHT22;61000;48.120;11.548;2022-09-09T12:17:50;19.70;90.60
72865;DHT22;61000;48.120;11.548;2022-09-09T12:20:19;19.70;89.80
72865;DHT22;61000;48.120;11.548;2022-09-09T12:23:13;19.60;89.60
72865;DHT22;61000;48.120;11.548;2022-09-09T12:25:57;19.70;90.20
72865;DHT22;61000;48.120;11.548;2022-09-09T12:28:32;19.80;90.40
72865;DHT22;61000;48.120;11.548;2022-09-09T12:31:06;19.90;90.60
72865;DHT22;61000;48.120;11.548;2022-09-09T12:33:37;20.10;89.90
72865;DHT22;61000;48.120;11.548;2022-09-09T12:36:09;20.10;89.20
72865;DHT22;61000;48.120;11.548;2022-09-09T12:38:39;20.00;89.00
72865;DHT22;61000;48.120;11.548;2022-09-09T12:41:18;19.90;89.50
72865;DHT22;61000;48.120;11.548;2022-09-09T12:43:46;19.90;89.50
72865;DHT22;61000;48.120;11.548;2022-09-09T12:46:21;20.00;90.00
72865;DHT22;61000;48.120;11.548;2022-09-09T12:48:53;20.10;89.50
72865;DHT22;61000;48.120;11.548;2022-09-09T12:51:24;20.20;88.80
72865;DHT22;61000;48.120;11.548;2022-09-09T12:53:52;20.10;88.90
72865;DHT22;61000;48.120;11.548;2022-09-09T12:56:22;20.00;89.30
72865;DHT22;61000;48.120;11.548;2022-09-09T12:58:52;20.10;89.90
72865;DHT22;61000;48.120;11.548;2022-09-09T13:01:22;20.10;89.60
72865;DHT22;61000;48.120;11.548;2022-09-09T13:03:49;20.30;89.40
72865;DHT22;61000;48.120;11.548;2022-09-09T13:06:20;20.20;89.40
72865;DHT22;61000;48.120;11.548;2022-09-09T13:08:48;20.10;90.00
72865;DHT22;61000;48.120;11.548;2022-09-09T13:11:18;20.20;89.30
72865;DHT22;61000;48.120;11.548;2022-09-09T13:13:52;20.10;89.10
72865;DHT22;61000;48.120;11.548;2022-09-09T13:16:22;20.00;89.30
72865;DHT22;61000;48.120;11.548;2022-09-09T13:18:49;20.00;89.60
72865;DHT22;61000;48.120;11.548;2022-09-09T13:21:16;20.00;89.80
72865;DHT22;61000;48.120;11.548;2022-09-09T13:23:49;20.10;89.40
72865;DHT22;61000;48.120;11.548;2022-09-09T13:26:22;20.10;89.40
72865;DHT22;61000;48.120;11.548;2022-09-09T13:28:51;20.00;88.90
72865;DHT22;61000;48.120;11.548;2022-09-09T13:31:27;19.90;88.90
72865;DHT22;61000;48.120;11.548;2022-09-09T13:33:55;19.80;89.60
72865;DHT22;61000;48.120;11.548;2022-09-09T13:36:29;19.80;90.10
72865;DHT22;61000;48.120;11.548;2022-09-09T13:38:58;19.70;90.00
72865;DHT22;61000;48.120;11.548;2022-09-09T13:41:35;19.70;89.50
72865;DHT22;61000;48.120;11.548;2022-09-09T13:44:04;19.70;88.70
72865;DHT22;61000;48.120;11.548;2022-09-09T13:46:34;19.70;88.80
72865;DHT22;61000;48.120;11.548;2022-09-09T13:49:18;19.80;89.30
72865;DHT22;61000;48.120;11.548;2022-09-09T13:51:47;19.80;89.10
72865;DHT22;61000;48.120;11.548;2022-09-09T13:54:16;19.80;89.30
72865;DHT22;61000;48.120;11.548;2022-09-09T13:56:44;19.70;89.30
72865;DHT22;61000;48.120;11.548;2022-09-09T13:59:14;19.60;89.70
72865;DHT22;61000;48.120;11.548;2022-09-09T14:01:41;19.30;90.20
72865;DHT22;61000;48.120;11.548;2022-09-09T14:04:09;19.30;90.60
72865;DHT22;61000;48.120;11.548;2022-09-09T14:06:37;19.30;90.50
72865;DHT22;61000;48.120;11.548;2022-09-09T14:09:05;19.30;90.50
72865;DHT22;61000;48.120;11.548;2022-09-09T14:11:32;19.30;90.50
72865;DHT22;61000;48.120;11.548;2022-09-09T14:13:59;19.30;90.40
72865;DHT22;61000;48.120;11.548;2022-09-09T14:16:28;19.30;90.60
72865;DHT22;61000;48.120;11.548;2022-09-09T14:18:55;19.20;90.70
72865;DHT22;61000;48.120;11.548;2022-09-09T14:21:22;19.20;90.70
72865;DHT22;61000;48.120;11.548;2022-09-09T14:23:49;19.30;91.00
72865;DHT22;61000;48.120;11.548;2022-09-09T14:26:16;19.20;90.80
72865;DHT22;61000;48.120;11.548;2022-09-09T14:28:47;19.20;90.70
72865;DHT22;61000;48.120;11.548;2022-09-09T14:31:14;19.30;91.20
72865;DHT22;61000;48.120;11.548;2022-09-09T14:33:44;19.30;91.00
72865;DHT22;61000;48.120;11.548;2022-09-09T14:36:11;19.20;90.90
72865;DHT22;61000;48.120;11.548;2022-09-09T14:38:38;19.10;91.00
72865;DHT22;61000;48.120;11.548;2022-09-09T14:41:06;19.00;91.00
72865;DHT22;61000;48.120;11.548;2022-09-09T14:43:32;19.00;90.90
72865;DHT22;61000;48.120;11.548;2022-09-09T14:46:05;19.00;91.00
72865;DHT22;61000;48.120;11.548;2022-09-09T14:48:32;18.90;91.00
72865;DHT22;61000;48.120;11.548;2022-09-09T14:51:06;18.90;91.00
72865;DHT22;61000;48.120;11.548;2022-09-09T14:53:33;18.90;91.10
72865;DHT22;61000;48.120;11.548;2022-09-09T14:56:05;19.00;91.00
72865;DHT22;61000;48.120;11.548;2022-09-09T14:58:32;19.00;91.20
72865;DHT22;61000;48.120;11.548;2022-09-09T15:01:04;19.00;91.00
72865;DHT22;61000;48.120;11.548;2022-09-09T15:03:30;19.00;90.70
72865;DHT22;61000;48.120;11.548;2022-09-09T15:05:57;19.00;90.60
72865;DHT22;61000;48.120;11.548;2022-09-09T15:08:26;18.90;90.50
72865;DHT22;61000;48.120;11.548;2022-09-09T15:10:59;19.00;90.00
72865;DHT22;61000;48.120;11.548;2022-09-09T15:13:26;19.00;90.00
72865;DHT22;61000;48.120;11.548;2022-09-09T15:15:53;18.90;90.00
72865;DHT22;61000;48.120;11.548;2022-09-09T15:18:20;19.00;90.20
72865;DHT22;61000;48.120;11.548;2022-09-09T15:20:47;19.00;90.40
72865;DHT22;61000;48.120;11.548;2022-09-09T15:23:14;19.00;89.40
72865;DHT22;61000;48.120;11.548;2022-09-09T15:25:51;19.00;89.70
72865;DHT22;61000;48.120;11.548;2022-09-09T15:28:18;19.00;90.00
72865;DHT22;61000;48.120;11.548;2022-09-09T15:30:48;18.90;89.00
72865;DHT22;61000;48.120;11.548;2022-09-09T15:33:15;18.90;89.40
72865;DHT22;61000;48.120;11.548;2022-09-09T15:35:42;18.80;89.70
72865;DHT22;61000;48.120;11.548;2022-09-09T15:38:09;18.80;90.00
72865;DHT22;61000;48.120;11.548;2022-09-09T15:40:36;18.70;90.30
72865;DHT22;61000;48.120;11.548;2022-09-09T15:43:05;18.80;90.00
72865;DHT22;61000;48.120;11.548;2022-09-09T15:45:32;18.80;90.30